createdAt,value
2017-08-04T00:00:46.396Z,0
2017-08-04T00:01:44.854Z,0
2017-08-04T00:02:45.152Z,0
2017-08-04T00:03:44.863Z,0
2017-08-04T00:04:45.172Z,0
2017-08-04T00:05:45.225Z,0
2017-08-04T00:06:45.174Z,0
2017-08-04T00:07:44.908Z,0
2017-08-04T00:08:45.183Z,0
2017-08-04T00:09:44.887Z,0
2017-08-04T00:10:45.337Z,0
2017-08-04T00:11:44.586Z,0
2017-08-04T00:12:45.198Z,0
2017-08-04T00:13:44.888Z,0
2017-08-04T00:14:44.594Z,0
2017-08-04T00:15:45.033Z,0
2017-08-04T00:16:44.321Z,0
2017-08-04T00:17:45.200Z,0
2017-08-04T00:18:44.945Z,0
2017-08-04T00:19:45.215Z,0
2017-08-04T00:20:44.997Z,0
2017-08-04T00:21:44.643Z,0
2017-08-04T00:22:45.234Z,0
2017-08-04T00:23:45.227Z,0
2017-08-04T00:24:45.230Z,0
2017-08-04T00:25:45.261Z,0
2017-08-04T00:26:45.249Z,0
2017-08-04T00:27:45.238Z,0
2017-08-04T00:28:45.272Z,0
2017-08-04T00:29:48.290Z,0
2017-08-04T00:30:46.272Z,0
2017-08-04T00:31:44.685Z,0
2017-08-04T00:32:45.269Z,0
2017-08-04T00:33:45.274Z,0
2017-08-04T00:34:44.976Z,0
2017-08-04T00:35:45.403Z,0
2017-08-04T00:36:44.676Z,0
2017-08-04T00:37:44.977Z,0
2017-08-04T00:38:44.697Z,0
2017-08-04T00:39:45.285Z,0
2017-08-04T00:40:45.030Z,0
2017-08-04T00:41:45.305Z,0
2017-08-04T00:42:45.294Z,0
2017-08-04T00:43:45.005Z,0
2017-08-04T00:44:45.310Z,0
2017-08-04T00:45:45.410Z,0
2017-08-04T00:46:45.025Z,0
2017-08-04T00:47:45.328Z,0
2017-08-04T00:48:45.321Z,0
2017-08-04T00:49:45.335Z,0
2017-08-04T00:50:44.459Z,0
2017-08-04T00:51:45.346Z,0
2017-08-04T00:52:45.042Z,0
2017-08-04T00:53:45.352Z,0
2017-08-04T00:54:45.346Z,0
2017-08-04T00:55:45.211Z,0
2017-08-04T00:56:45.059Z,0
2017-08-04T00:57:44.781Z,0
2017-08-04T00:58:45.362Z,0
2017-08-04T00:59:45.073Z,0
2017-08-04T01:00:44.854Z,0
2017-08-04T01:01:50.176Z,0
2017-08-04T01:02:45.074Z,0
2017-08-04T01:03:44.793Z,0
2017-08-04T01:04:45.080Z,0
2017-08-04T01:05:45.539Z,0
2017-08-04T01:06:45.401Z,0
2017-08-04T01:07:45.094Z,0
2017-08-04T01:08:44.507Z,0
2017-08-04T01:09:45.102Z,0
2017-08-04T01:10:45.162Z,0
2017-08-04T01:11:45.406Z,0
2017-08-04T01:12:45.413Z,0
2017-08-04T01:13:44.825Z,0
2017-08-04T01:14:45.420Z,0
2017-08-04T01:15:45.168Z,0
2017-08-04T01:16:45.331Z,0
2017-08-04T01:17:45.144Z,0
2017-08-04T01:18:45.456Z,0
2017-08-04T01:19:45.490Z,0
2017-08-04T01:20:45.497Z,0
2017-08-04T01:21:45.144Z,0
2017-08-04T01:22:45.457Z,0
2017-08-04T01:23:45.446Z,0
2017-08-04T01:24:45.479Z,0
2017-08-04T01:25:45.553Z,0
2017-08-04T01:26:45.459Z,0
2017-08-04T01:27:45.192Z,0
2017-08-04T01:28:45.483Z,0
2017-08-04T01:29:45.200Z,0
2017-08-04T01:30:45.230Z,0
2017-08-04T01:31:48.589Z,0
2017-08-04T01:32:45.482Z,0
2017-08-04T01:33:45.496Z,0
2017-08-04T01:34:45.504Z,0
2017-08-04T01:35:45.561Z,0
2017-08-04T01:36:45.213Z,0
2017-08-04T01:37:45.522Z,0
2017-08-04T01:38:45.206Z,0
2017-08-04T01:39:45.217Z,0
2017-08-04T01:40:45.524Z,0
2017-08-04T01:41:45.562Z,0
2017-08-04T01:42:45.555Z,0
2017-08-04T01:43:45.547Z,0
2017-08-04T01:44:45.251Z,0
2017-08-04T01:45:45.375Z,0
2017-08-04T01:46:45.255Z,0
2017-08-04T01:47:45.298Z,0
2017-08-04T01:48:45.557Z,0
2017-08-04T01:49:45.560Z,0
2017-08-04T01:50:45.288Z,0
2017-08-04T01:51:44.963Z,0
2017-08-04T01:52:45.262Z,0
2017-08-04T01:53:45.570Z,0
2017-08-04T01:54:45.291Z,0
2017-08-04T01:55:45.359Z,0
2017-08-04T01:56:44.966Z,0
2017-08-04T01:57:45.269Z,0
2017-08-04T01:58:45.283Z,0
2017-08-04T01:59:45.295Z,0
2017-08-04T02:00:45.082Z,0
2017-08-04T02:01:45.290Z,0
2017-08-04T02:02:45.953Z,0
2017-08-04T02:03:45.296Z,0
2017-08-04T02:04:45.018Z,0
2017-08-04T02:05:45.643Z,0
2017-08-04T02:06:45.613Z,0
2017-08-04T02:07:45.326Z,0
2017-08-04T02:08:45.615Z,0
2017-08-04T02:09:45.328Z,0
2017-08-04T02:10:45.651Z,0
2017-08-04T02:11:45.348Z,0
2017-08-04T02:12:45.335Z,0
2017-08-04T02:13:45.033Z,0
2017-08-04T02:14:45.334Z,0
2017-08-04T02:15:45.716Z,0
2017-08-04T02:16:45.342Z,0
2017-08-04T02:17:45.702Z,0
2017-08-04T02:18:45.363Z,0
2017-08-04T02:19:45.360Z,0
2017-08-04T02:20:45.500Z,0
2017-08-04T02:21:45.372Z,0
2017-08-04T02:22:45.094Z,0
2017-08-04T02:23:45.674Z,0
2017-08-04T02:24:45.378Z,0
2017-08-04T02:25:45.211Z,0
2017-08-04T02:26:45.388Z,0
2017-08-04T02:27:45.084Z,0
2017-08-04T02:28:45.699Z,0
2017-08-04T02:29:45.688Z,0
2017-08-04T02:30:45.441Z,0
2017-08-04T02:31:45.703Z,0
2017-08-04T02:32:45.446Z,0
2017-08-04T02:33:45.408Z,0
2017-08-04T02:34:45.410Z,0
2017-08-04T02:35:45.748Z,0
2017-08-04T02:36:45.415Z,0
2017-08-04T02:37:45.435Z,0
2017-08-04T02:38:45.735Z,0
2017-08-04T02:39:45.432Z,0
2017-08-04T02:40:45.243Z,0
2017-08-04T02:41:45.433Z,0
2017-08-04T02:42:45.130Z,0
2017-08-04T02:43:45.447Z,0
2017-08-04T02:44:45.299Z,0
2017-08-04T02:45:45.817Z,0
2017-08-04T02:46:45.458Z,0
2017-08-04T02:47:45.516Z,0
2017-08-04T02:48:45.454Z,0
2017-08-04T02:49:45.454Z,0
2017-08-04T02:50:45.562Z,0
2017-08-04T02:51:45.776Z,0
2017-08-04T02:52:45.509Z,0
2017-08-04T02:53:45.461Z,0
2017-08-04T02:54:45.475Z,0
2017-08-04T02:55:45.876Z,0
2017-08-04T02:56:45.788Z,0
2017-08-04T02:57:45.508Z,0
2017-08-04T02:58:45.496Z,0
2017-08-04T02:59:45.494Z,0
2017-08-04T03:00:45.917Z,0
2017-08-04T03:01:45.809Z,0
2017-08-04T03:02:49.103Z,0
2017-08-04T03:03:45.509Z,0
2017-08-04T03:04:45.205Z,0
2017-08-04T03:05:45.886Z,0
2017-08-04T03:06:45.827Z,0
2017-08-04T03:07:45.524Z,0
2017-08-04T03:08:45.251Z,0
2017-08-04T03:09:45.537Z,0
2017-08-04T03:10:45.914Z,0
2017-08-04T03:11:45.861Z,0
2017-08-04T03:12:45.855Z,0
2017-08-04T03:13:45.851Z,0
2017-08-04T03:14:45.558Z,0
2017-08-04T03:15:45.643Z,0
2017-08-04T03:16:45.552Z,0
2017-08-04T03:17:47.934Z,0
2017-08-04T03:18:45.875Z,0
2017-08-04T03:19:45.879Z,0
2017-08-04T03:20:45.661Z,0
2017-08-04T03:21:45.271Z,0
2017-08-04T03:22:45.575Z,0
2017-08-04T03:23:45.591Z,0
2017-08-04T03:24:45.615Z,0
2017-08-04T03:25:45.744Z,0
2017-08-04T03:26:45.600Z,0
2017-08-04T03:27:45.306Z,0
2017-08-04T03:28:45.905Z,0
2017-08-04T03:29:45.908Z,0
2017-08-04T03:30:46.022Z,0
2017-08-04T03:31:45.912Z,0
2017-08-04T03:32:46.362Z,0
2017-08-04T03:33:45.924Z,0
2017-08-04T03:34:45.916Z,0
2017-08-04T03:35:46.039Z,0
2017-08-04T03:36:45.922Z,0
2017-08-04T03:37:45.924Z,0
2017-08-04T03:38:45.930Z,0
2017-08-04T03:39:45.926Z,0
2017-08-04T03:40:45.681Z,0
2017-08-04T03:41:45.941Z,0
2017-08-04T03:42:45.940Z,0
2017-08-04T03:43:45.648Z,0
2017-08-04T03:44:45.958Z,0
2017-08-04T03:45:46.035Z,0
2017-08-04T03:46:45.959Z,0
2017-08-04T03:47:45.646Z,0
2017-08-04T03:48:47.356Z,0
2017-08-04T03:49:45.956Z,0
2017-08-04T03:50:45.714Z,0
2017-08-04T03:51:45.678Z,0
2017-08-04T03:52:45.356Z,0
2017-08-04T03:53:45.672Z,0
2017-08-04T03:54:45.366Z,0
2017-08-04T03:55:45.779Z,0
2017-08-04T03:56:45.375Z,0
2017-08-04T03:57:45.676Z,0
2017-08-04T03:58:45.990Z,0
2017-08-04T03:59:45.681Z,0
2017-08-04T04:00:45.792Z,5
2017-08-04T04:01:45.691Z,5
2017-08-04T04:02:45.684Z,5
2017-08-04T04:03:46.840Z,5
2017-08-04T04:04:46.011Z,5
2017-08-04T04:05:46.054Z,5
2017-08-04T04:06:45.403Z,5
2017-08-04T04:07:45.703Z,5
2017-08-04T04:08:46.018Z,5
2017-08-04T04:09:46.028Z,10
2017-08-04T04:10:45.781Z,10
2017-08-04T04:11:46.018Z,10
2017-08-04T04:12:46.035Z,10
2017-08-04T04:13:45.726Z,10
2017-08-04T04:14:45.738Z,10
2017-08-04T04:15:45.786Z,10
2017-08-04T04:16:45.735Z,10
2017-08-04T04:17:46.033Z,15
2017-08-04T04:18:45.786Z,15
2017-08-04T04:19:45.749Z,15
2017-08-04T04:20:45.783Z,15
2017-08-04T04:21:46.055Z,15
2017-08-04T04:22:46.061Z,20
2017-08-04T04:23:45.785Z,20
2017-08-04T04:24:45.774Z,20
2017-08-04T04:25:45.774Z,20
2017-08-04T04:26:46.066Z,25
2017-08-04T04:27:45.785Z,25
2017-08-04T04:28:45.833Z,30
2017-08-04T04:29:46.083Z,30
2017-08-04T04:30:45.792Z,35
2017-08-04T04:31:45.792Z,35
2017-08-04T04:32:45.797Z,35
2017-08-04T04:33:47.855Z,40
2017-08-04T04:34:45.508Z,45
2017-08-04T04:35:45.862Z,40
2017-08-04T04:36:45.803Z,40
2017-08-04T04:37:46.134Z,45
2017-08-04T04:38:45.818Z,45
2017-08-04T04:39:46.123Z,60
2017-08-04T04:40:45.886Z,60
2017-08-04T04:41:46.127Z,90
2017-08-04T04:42:46.144Z,125
2017-08-04T04:43:46.142Z,70
2017-08-04T04:44:45.547Z,105
2017-08-04T04:45:45.881Z,145
2017-08-04T04:46:46.141Z,125
2017-08-04T04:47:45.575Z,140
2017-08-04T04:48:48.656Z,100
2017-08-04T04:49:46.165Z,105
2017-08-04T04:50:46.210Z,70
2017-08-04T04:51:46.160Z,90
2017-08-04T04:52:45.574Z,110
2017-08-04T04:53:46.199Z,110
2017-08-04T04:54:46.193Z,75
2017-08-04T04:55:45.918Z,75
2017-08-04T04:56:46.192Z,75
2017-08-04T04:57:46.189Z,80
2017-08-04T04:58:45.900Z,85
2017-08-04T04:59:46.206Z,90
2017-08-04T05:00:46.237Z,110
2017-08-04T05:01:45.916Z,120
2017-08-04T05:02:46.206Z,145
2017-08-04T05:03:45.921Z,265
2017-08-04T05:04:51.387Z,260
2017-08-04T05:05:46.336Z,245
2017-08-04T05:06:46.240Z,275
2017-08-04T05:07:46.230Z,280
2017-08-04T05:08:46.236Z,175
2017-08-04T05:09:46.247Z,210
2017-08-04T05:10:46.344Z,210
2017-08-04T05:11:46.257Z,115
2017-08-04T05:12:45.957Z,140
2017-08-04T05:13:46.287Z,200
2017-08-04T05:14:46.274Z,290
2017-08-04T05:15:46.329Z,305
2017-08-04T05:16:46.280Z,310
2017-08-04T05:17:46.045Z,270
2017-08-04T05:18:46.340Z,250
2017-08-04T05:19:46.349Z,205
2017-08-04T05:20:46.114Z,170
2017-08-04T05:21:46.014Z,230
2017-08-04T05:22:46.032Z,260
2017-08-04T05:23:46.332Z,190
2017-08-04T05:24:46.339Z,350
2017-08-04T05:25:46.417Z,210
2017-08-04T05:26:46.037Z,180
2017-08-04T05:27:46.350Z,225
2017-08-04T05:28:46.051Z,205
2017-08-04T05:29:46.356Z,165
2017-08-04T05:30:46.497Z,165
2017-08-04T05:31:46.395Z,170
2017-08-04T05:32:46.400Z,265
2017-08-04T05:33:46.397Z,260
2017-08-04T05:34:47.495Z,285
2017-08-04T05:35:46.524Z,250
2017-08-04T05:36:46.421Z,175
2017-08-04T05:37:46.408Z,205
2017-08-04T05:38:46.446Z,175
2017-08-04T05:39:46.442Z,190
2017-08-04T05:40:46.533Z,175
2017-08-04T05:41:46.447Z,165
2017-08-04T05:42:46.460Z,160
2017-08-04T05:43:46.457Z,185
2017-08-04T05:44:46.473Z,155
2017-08-04T05:45:46.209Z,150
2017-08-04T05:46:46.160Z,150
2017-08-04T05:47:46.473Z,150
2017-08-04T05:48:46.482Z,155
2017-08-04T05:49:47.489Z,160
2017-08-04T05:50:46.513Z,165
2017-08-04T05:51:46.200Z,170
2017-08-04T05:52:46.524Z,165
2017-08-04T05:53:46.504Z,170
2017-08-04T05:54:46.217Z,170
2017-08-04T05:55:46.551Z,170
2017-08-04T05:56:46.534Z,165
2017-08-04T05:57:46.222Z,165
2017-08-04T05:58:46.561Z,165
2017-08-04T05:59:46.243Z,170
2017-08-04T06:00:46.325Z,175
2017-08-04T06:01:46.565Z,190
2017-08-04T06:02:46.262Z,180
2017-08-04T06:03:46.261Z,175
2017-08-04T06:04:46.564Z,175
2017-08-04T06:05:48.275Z,175
2017-08-04T06:06:46.284Z,180
2017-08-04T06:07:46.592Z,180
2017-08-04T06:08:46.591Z,185
2017-08-04T06:09:46.596Z,190
2017-08-04T06:10:46.650Z,195
2017-08-04T06:11:46.610Z,195
2017-08-04T06:12:46.605Z,200
2017-08-04T06:13:46.616Z,205
2017-08-04T06:14:46.629Z,205
2017-08-04T06:15:46.374Z,220
2017-08-04T06:16:46.631Z,210
2017-08-04T06:17:46.638Z,215
2017-08-04T06:18:46.659Z,215
2017-08-04T06:19:46.346Z,220
2017-08-04T06:20:46.868Z,220
2017-08-04T06:21:46.350Z,220
2017-08-04T06:22:46.351Z,235
2017-08-04T06:23:46.677Z,215
2017-08-04T06:24:46.372Z,225
2017-08-04T06:25:46.423Z,320
2017-08-04T06:26:46.676Z,255
2017-08-04T06:27:46.396Z,325
2017-08-04T06:28:46.692Z,320
2017-08-04T06:29:46.706Z,245
2017-08-04T06:30:46.459Z,260
2017-08-04T06:31:46.718Z,315
2017-08-04T06:32:46.742Z,265
2017-08-04T06:33:46.725Z,305
2017-08-04T06:34:46.430Z,275
2017-08-04T06:35:47.617Z,285
2017-08-04T06:36:46.752Z,280
2017-08-04T06:37:46.798Z,355
2017-08-04T06:38:46.521Z,295
2017-08-04T06:39:46.759Z,380
2017-08-04T06:40:46.773Z,290
2017-08-04T06:41:46.479Z,285
2017-08-04T06:42:46.787Z,280
2017-08-04T06:43:46.779Z,300
2017-08-04T06:44:46.484Z,285
2017-08-04T06:45:46.560Z,405
2017-08-04T06:46:46.800Z,305
2017-08-04T06:47:46.817Z,375
2017-08-04T06:48:46.820Z,295
2017-08-04T06:49:46.220Z,280
2017-08-04T06:50:46.059Z,270
2017-08-04T06:51:46.549Z,285
2017-08-04T06:52:46.844Z,285
2017-08-04T06:53:46.552Z,315
2017-08-04T06:54:46.870Z,265
2017-08-04T06:55:46.909Z,395
2017-08-04T06:56:46.877Z,300
2017-08-04T06:57:46.904Z,375
2017-08-04T06:58:46.888Z,245
2017-08-04T06:59:46.920Z,250
2017-08-04T07:00:46.998Z,240
2017-08-04T07:01:46.912Z,270
2017-08-04T07:02:46.919Z,330
2017-08-04T07:03:46.937Z,255
2017-08-04T07:04:46.929Z,245
2017-08-04T07:05:49.106Z,265
2017-08-04T07:06:46.945Z,315
2017-08-04T07:07:46.346Z,270
2017-08-04T07:08:46.954Z,430
2017-08-04T07:09:46.966Z,400
2017-08-04T07:10:46.700Z,320
2017-08-04T07:11:47.000Z,360
2017-08-04T07:12:46.997Z,340
2017-08-04T07:13:46.693Z,310
2017-08-04T07:14:46.714Z,505
2017-08-04T07:15:47.021Z,510
2017-08-04T07:16:46.725Z,370
2017-08-04T07:17:47.053Z,315
2017-08-04T07:18:47.037Z,485
2017-08-04T07:19:47.064Z,525
2017-08-04T07:20:46.884Z,360
2017-08-04T07:21:46.755Z,300
2017-08-04T07:22:46.834Z,370
2017-08-04T07:23:47.084Z,345
2017-08-04T07:24:46.784Z,485
2017-08-04T07:25:47.105Z,370
2017-08-04T07:26:46.497Z,375
2017-08-04T07:27:46.813Z,335
2017-08-04T07:28:47.127Z,420
2017-08-04T07:29:46.839Z,430
2017-08-04T07:30:46.916Z,345
2017-08-04T07:31:46.861Z,335
2017-08-04T07:32:46.871Z,290
2017-08-04T07:33:46.876Z,340
2017-08-04T07:34:47.180Z,320
2017-08-04T07:35:50.005Z,350
2017-08-04T07:36:47.215Z,315
2017-08-04T07:37:46.922Z,330
2017-08-04T07:38:46.610Z,295
2017-08-04T07:39:47.225Z,280
2017-08-04T07:40:46.945Z,270
2017-08-04T07:41:47.243Z,275
2017-08-04T07:42:47.259Z,280
2017-08-04T07:43:46.644Z,280
2017-08-04T07:44:47.268Z,300
2017-08-04T07:45:47.049Z,295
2017-08-04T07:46:47.279Z,300
2017-08-04T07:47:47.289Z,285
2017-08-04T07:48:47.293Z,270
2017-08-04T07:49:46.998Z,275
2017-08-04T07:50:47.380Z,275
2017-08-04T07:51:47.061Z,310
2017-08-04T07:52:47.328Z,305
2017-08-04T07:53:47.028Z,405
2017-08-04T07:54:47.348Z,460
2017-08-04T07:55:47.400Z,425
2017-08-04T07:56:48.149Z,435
2017-08-04T07:57:47.044Z,455
2017-08-04T07:58:46.786Z,460
2017-08-04T07:59:46.757Z,290
2017-08-04T08:00:46.824Z,320
2017-08-04T08:01:47.103Z,465
2017-08-04T08:02:47.412Z,470
2017-08-04T08:03:47.115Z,465
2017-08-04T08:04:47.444Z,470
2017-08-04T08:05:47.559Z,455
2017-08-04T08:06:49.512Z,380
2017-08-04T08:07:47.462Z,420
2017-08-04T08:08:47.174Z,430
2017-08-04T08:09:47.456Z,475
2017-08-04T08:10:47.556Z,475
2017-08-04T08:11:47.477Z,480
2017-08-04T08:12:47.495Z,480
2017-08-04T08:13:47.498Z,470
2017-08-04T08:14:46.889Z,480
2017-08-04T08:15:47.635Z,485
2017-08-04T08:16:47.226Z,485
2017-08-04T08:17:47.232Z,430
2017-08-04T08:18:47.535Z,360
2017-08-04T08:19:46.969Z,340
2017-08-04T08:20:47.730Z,325
2017-08-04T08:21:48.625Z,385
2017-08-04T08:22:46.714Z,380
2017-08-04T08:23:47.307Z,455
2017-08-04T08:24:47.312Z,450
2017-08-04T08:25:47.665Z,430
2017-08-04T08:26:47.635Z,430
2017-08-04T08:27:47.026Z,425
2017-08-04T08:28:47.347Z,415
2017-08-04T08:29:47.368Z,410
2017-08-04T08:30:47.426Z,405
2017-08-04T08:31:47.102Z,400
2017-08-04T08:32:47.400Z,400
2017-08-04T08:33:47.151Z,400
2017-08-04T08:34:47.722Z,400
2017-08-04T08:35:47.508Z,395
2017-08-04T08:36:50.904Z,390
2017-08-04T08:37:47.452Z,390
2017-08-04T08:38:47.763Z,385
2017-08-04T08:39:47.182Z,385
2017-08-04T08:40:47.884Z,390
2017-08-04T08:41:47.511Z,390
2017-08-04T08:42:47.832Z,390
2017-08-04T08:43:47.520Z,395
2017-08-04T08:44:47.839Z,395
2017-08-04T08:45:47.636Z,400
2017-08-04T08:46:47.258Z,405
2017-08-04T08:47:47.885Z,405
2017-08-04T08:48:47.291Z,410
2017-08-04T08:49:47.894Z,415
2017-08-04T08:50:47.700Z,415
2017-08-04T08:51:47.618Z,425
2017-08-04T08:52:47.684Z,435
2017-08-04T08:53:47.648Z,445
2017-08-04T08:54:47.973Z,450
2017-08-04T08:55:47.427Z,460
2017-08-04T08:56:47.970Z,470
2017-08-04T08:57:47.681Z,480
2017-08-04T08:58:47.992Z,485
2017-08-04T08:59:47.711Z,490
2017-08-04T09:00:47.446Z,490
2017-08-04T09:01:47.716Z,510
2017-08-04T09:02:48.835Z,515
2017-08-04T09:03:47.745Z,365
2017-08-04T09:04:47.764Z,515
2017-08-04T09:05:47.851Z,495
2017-08-04T09:06:48.074Z,490
2017-08-04T09:07:48.474Z,495
2017-08-04T09:08:48.103Z,500
2017-08-04T09:09:48.121Z,495
2017-08-04T09:10:48.165Z,520
2017-08-04T09:11:48.126Z,515
2017-08-04T09:12:48.147Z,510
2017-08-04T09:13:48.149Z,500
2017-08-04T09:14:47.866Z,495
2017-08-04T09:15:47.930Z,360
2017-08-04T09:16:47.579Z,480
2017-08-04T09:17:47.903Z,360
2017-08-04T09:18:47.884Z,370
2017-08-04T09:19:47.897Z,390
2017-08-04T09:20:47.967Z,385
2017-08-04T09:21:47.605Z,390
2017-08-04T09:22:49.575Z,510
2017-08-04T09:23:48.242Z,400
2017-08-04T09:24:48.248Z,440
2017-08-04T09:25:48.046Z,490
2017-08-04T09:26:47.648Z,440
2017-08-04T09:27:47.963Z,520
2017-08-04T09:28:47.985Z,480
2017-08-04T09:29:48.017Z,460
2017-08-04T09:30:48.369Z,490
2017-08-04T09:31:48.005Z,420
2017-08-04T09:32:48.021Z,415
2017-08-04T09:33:48.343Z,450
2017-08-04T09:34:48.048Z,420
2017-08-04T09:35:48.434Z,435
2017-08-04T09:36:47.466Z,490
2017-08-04T09:37:48.366Z,395
2017-08-04T09:38:48.318Z,380
2017-08-04T09:39:48.085Z,370
2017-08-04T09:40:48.445Z,360
2017-08-04T09:41:47.797Z,355
2017-08-04T09:42:47.800Z,355
2017-08-04T09:43:47.512Z,370
2017-08-04T09:44:48.437Z,365
2017-08-04T09:45:48.233Z,385
2017-08-04T09:46:48.135Z,370
2017-08-04T09:47:48.493Z,370
2017-08-04T09:48:48.159Z,375
2017-08-04T09:49:48.185Z,380
2017-08-04T09:50:48.181Z,415
2017-08-04T09:51:48.472Z,385
2017-08-04T09:52:48.474Z,445
2017-08-04T09:53:48.882Z,480
2017-08-04T09:54:48.182Z,410
2017-08-04T09:55:48.239Z,405
2017-08-04T09:56:48.497Z,460
2017-08-04T09:57:47.900Z,470
2017-08-04T09:58:48.512Z,520
2017-08-04T09:59:48.525Z,510
2017-08-04T10:00:47.989Z,425
2017-08-04T10:01:47.936Z,420
2017-08-04T10:02:47.947Z,425
2017-08-04T10:03:48.249Z,410
2017-08-04T10:04:48.254Z,420
2017-08-04T10:05:48.395Z,430
2017-08-04T10:06:47.974Z,420
2017-08-04T10:07:48.578Z,410
2017-08-04T10:08:48.741Z,395
2017-08-04T10:09:48.007Z,395
2017-08-04T10:10:48.636Z,490
2017-08-04T10:11:48.031Z,490
2017-08-04T10:12:48.024Z,470
2017-08-04T10:13:48.322Z,415
2017-08-04T10:14:48.632Z,480
2017-08-04T10:15:48.384Z,500
2017-08-04T10:16:48.678Z,510
2017-08-04T10:17:48.062Z,480
2017-08-04T10:18:48.658Z,515
2017-08-04T10:19:48.363Z,470
2017-08-04T10:20:48.472Z,460
2017-08-04T10:21:48.383Z,420
2017-08-04T10:22:48.688Z,395
2017-08-04T10:23:48.173Z,415
2017-08-04T10:24:48.713Z,495
2017-08-04T10:25:48.819Z,445
2017-08-04T10:26:48.732Z,440
2017-08-04T10:27:48.733Z,475
2017-08-04T10:28:48.460Z,495
2017-08-04T10:29:48.748Z,425
2017-08-04T10:30:48.559Z,455
2017-08-04T10:31:48.457Z,515
2017-08-04T10:32:48.479Z,500
2017-08-04T10:33:48.474Z,495
2017-08-04T10:34:48.780Z,490
2017-08-04T10:35:48.896Z,450
2017-08-04T10:36:48.798Z,480
2017-08-04T10:37:48.205Z,480
2017-08-04T10:38:49.557Z,470
2017-08-04T10:39:48.528Z,490
2017-08-04T10:40:48.629Z,455
2017-08-04T10:41:48.859Z,495
2017-08-04T10:42:48.546Z,505
2017-08-04T10:43:48.563Z,475
2017-08-04T10:44:48.263Z,465
2017-08-04T10:45:48.633Z,415
2017-08-04T10:46:48.605Z,400
2017-08-04T10:47:48.884Z,375
2017-08-04T10:48:49.694Z,375
2017-08-04T10:49:48.913Z,380
2017-08-04T10:50:48.924Z,380
2017-08-04T10:51:48.334Z,375
2017-08-04T10:52:48.621Z,380
2017-08-04T10:53:50.531Z,380
2017-08-04T10:54:48.939Z,485
2017-08-04T10:55:49.034Z,420
2017-08-04T10:56:48.651Z,415
2017-08-04T10:57:48.741Z,475
2017-08-04T10:58:48.974Z,450
2017-08-04T10:59:48.670Z,485
2017-08-04T11:00:49.047Z,400
2017-08-04T11:01:48.698Z,405
2017-08-04T11:02:49.041Z,415
2017-08-04T11:03:48.405Z,415
2017-08-04T11:04:48.714Z,420
2017-08-04T11:05:49.092Z,415
2017-08-04T11:06:49.054Z,400
2017-08-04T11:07:48.751Z,435
2017-08-04T11:08:48.757Z,395
2017-08-04T11:09:50.365Z,390
2017-08-04T11:10:48.484Z,385
2017-08-04T11:11:48.769Z,430
2017-08-04T11:12:49.140Z,375
2017-08-04T11:13:48.787Z,340
2017-08-04T11:14:49.099Z,345
2017-08-04T11:15:48.852Z,345
2017-08-04T11:16:48.808Z,390
2017-08-04T11:17:48.811Z,405
2017-08-04T11:18:48.818Z,435
2017-08-04T11:19:48.830Z,450
2017-08-04T11:20:48.918Z,440
2017-08-04T11:21:49.141Z,445
2017-08-04T11:22:48.860Z,410
2017-08-04T11:23:49.160Z,380
2017-08-04T11:24:49.214Z,375
2017-08-04T11:25:49.218Z,380
2017-08-04T11:26:48.588Z,395
2017-08-04T11:27:49.260Z,410
2017-08-04T11:28:49.193Z,385
2017-08-04T11:29:49.197Z,400
2017-08-04T11:30:48.357Z,395
2017-08-04T11:31:49.216Z,375
2017-08-04T11:32:48.978Z,370
2017-08-04T11:33:48.626Z,375
2017-08-04T11:34:48.936Z,370
2017-08-04T11:35:48.413Z,365
2017-08-04T11:36:48.354Z,355
2017-08-04T11:37:49.262Z,335
2017-08-04T11:38:49.280Z,320
2017-08-04T11:39:51.720Z,295
2017-08-04T11:40:49.280Z,280
2017-08-04T11:41:48.988Z,275
2017-08-04T11:42:49.301Z,260
2017-08-04T11:43:49.016Z,250
2017-08-04T11:44:49.018Z,245
2017-08-04T11:45:49.339Z,240
2017-08-04T11:46:49.336Z,235
2017-08-04T11:47:49.044Z,235
2017-08-04T11:48:49.348Z,230
2017-08-04T11:49:49.345Z,230
2017-08-04T11:50:49.097Z,240
2017-08-04T11:51:48.451Z,240
2017-08-04T11:52:48.771Z,235
2017-08-04T11:53:49.075Z,225
2017-08-04T11:54:49.153Z,220
2017-08-04T11:55:49.192Z,220
2017-08-04T11:56:49.401Z,225
2017-08-04T11:57:49.407Z,225
2017-08-04T11:58:49.114Z,235
2017-08-04T11:59:49.427Z,240
2017-08-04T12:00:49.427Z,240
2017-08-04T12:01:49.436Z,240
2017-08-04T12:02:49.128Z,245
2017-08-04T12:03:48.873Z,255
2017-08-04T12:04:49.443Z,250
2017-08-04T12:05:49.557Z,245
2017-08-04T12:06:49.186Z,235
2017-08-04T12:07:48.871Z,230
2017-08-04T12:08:49.180Z,225
2017-08-04T12:09:50.038Z,210
2017-08-04T12:10:49.256Z,200
2017-08-04T12:11:49.502Z,195
2017-08-04T12:12:49.208Z,195
2017-08-04T12:13:48.904Z,200
2017-08-04T12:14:49.520Z,205
2017-08-04T12:15:48.670Z,195
2017-08-04T12:16:49.218Z,190
2017-08-04T12:17:49.527Z,195
2017-08-04T12:18:49.236Z,200
2017-08-04T12:19:49.240Z,205
2017-08-04T12:20:49.305Z,215
2017-08-04T12:21:49.556Z,205
2017-08-04T12:22:49.303Z,195
2017-08-04T12:23:49.565Z,200
2017-08-04T12:24:49.628Z,205
2017-08-04T12:25:49.057Z,205
2017-08-04T12:26:49.589Z,210
2017-08-04T12:27:48.701Z,225
2017-08-04T12:28:49.610Z,245
2017-08-04T12:29:49.620Z,260
2017-08-04T12:30:49.310Z,275
2017-08-04T12:31:49.619Z,290
2017-08-04T12:32:49.620Z,300
2017-08-04T12:33:49.628Z,300
2017-08-04T12:34:49.332Z,300
2017-08-04T12:35:49.677Z,300
2017-08-04T12:36:49.654Z,305
2017-08-04T12:37:49.678Z,315
2017-08-04T12:38:49.078Z,330
2017-08-04T12:39:53.930Z,335
2017-08-04T12:40:49.383Z,340
2017-08-04T12:41:49.699Z,340
2017-08-04T12:42:48.824Z,340
2017-08-04T12:43:49.101Z,310
2017-08-04T12:44:49.714Z,290
2017-08-04T12:45:49.830Z,270
2017-08-04T12:46:49.110Z,250
2017-08-04T12:47:49.709Z,255
2017-08-04T12:48:49.130Z,250
2017-08-04T12:49:49.762Z,250
2017-08-04T12:50:49.249Z,260
2017-08-04T12:51:49.478Z,275
2017-08-04T12:52:49.761Z,270
2017-08-04T12:53:49.156Z,260
2017-08-04T12:54:50.192Z,255
2017-08-04T12:55:49.824Z,250
2017-08-04T12:56:49.195Z,245
2017-08-04T12:57:49.215Z,245
2017-08-04T12:58:49.507Z,235
2017-08-04T12:59:49.537Z,225
2017-08-04T13:00:49.363Z,220
2017-08-04T13:01:49.551Z,220
2017-08-04T13:02:49.532Z,225
2017-08-04T13:03:49.549Z,230
2017-08-04T13:04:49.258Z,225
2017-08-04T13:05:49.562Z,215
2017-08-04T13:06:49.874Z,210
2017-08-04T13:07:49.569Z,205
2017-08-04T13:08:49.558Z,185
2017-08-04T13:09:49.295Z,180
2017-08-04T13:10:49.974Z,180
2017-08-04T13:11:49.289Z,175
2017-08-04T13:12:49.614Z,175
2017-08-04T13:13:49.630Z,175
2017-08-04T13:14:49.901Z,170
2017-08-04T13:15:49.698Z,165
2017-08-04T13:16:49.927Z,165
2017-08-04T13:17:49.613Z,160
2017-08-04T13:18:49.364Z,155
2017-08-04T13:19:49.650Z,150
2017-08-04T13:20:49.033Z,145
2017-08-04T13:21:49.652Z,140
2017-08-04T13:22:49.943Z,140
2017-08-04T13:23:49.942Z,130
2017-08-04T13:24:49.656Z,125
2017-08-04T13:25:50.059Z,120
2017-08-04T13:26:51.482Z,120
2017-08-04T13:27:49.373Z,120
2017-08-04T13:28:49.680Z,115
2017-08-04T13:29:49.675Z,115
2017-08-04T13:30:50.059Z,115
2017-08-04T13:31:49.995Z,110
2017-08-04T13:32:50.008Z,110
2017-08-04T13:33:49.405Z,110
2017-08-04T13:34:50.025Z,115
2017-08-04T13:35:49.438Z,115
2017-08-04T13:36:50.014Z,115
2017-08-04T13:37:50.028Z,120
2017-08-04T13:38:50.071Z,125
2017-08-04T13:39:50.034Z,130
2017-08-04T13:40:50.400Z,130
2017-08-04T13:41:50.044Z,130
2017-08-04T13:42:49.482Z,125
2017-08-04T13:43:50.067Z,125
2017-08-04T13:44:50.077Z,125
2017-08-04T13:45:49.530Z,125
2017-08-04T13:46:50.082Z,130
2017-08-04T13:47:49.771Z,130
2017-08-04T13:48:50.091Z,130
2017-08-04T13:49:49.783Z,135
2017-08-04T13:50:50.103Z,140
2017-08-04T13:51:50.110Z,145
2017-08-04T13:52:50.111Z,155
2017-08-04T13:53:50.115Z,165
2017-08-04T13:54:49.840Z,185
2017-08-04T13:55:54.706Z,210
2017-08-04T13:56:49.833Z,220
2017-08-04T13:57:50.137Z,230
2017-08-04T13:58:49.833Z,235
2017-08-04T13:59:49.840Z,230
2017-08-04T14:00:50.534Z,225
2017-08-04T14:01:51.061Z,220
2017-08-04T14:02:50.602Z,215
2017-08-04T14:03:50.768Z,220
2017-08-04T14:04:51.071Z,230